Time;durP1;ratioP1;P1;durP2;ratioP2;P2;SDS_P1;SDS_P2;PMS_P1;PMS_P2;Temp;Humidity;BMP_temperature;BMP_pressure;BME280_temperature;BME280_humidity;BME280_pressure;Samples;Min_cycle;Max_cycle;Signal;HPM_P1;HPM_P2
2022/01/12 00:02:38;;;;;;;12.48;6.15;;;;;;;8.82;45.47;101904.97;5078141;28;20047;-77
2022/01/12 00:05:24;;;;;;;11.90;5.70;;;;;;;8.61;44.57;101916.94;5078534;28;20052;-77
2022/01/12 00:08:08;;;;;;;11.35;6.78;;;;;;;8.50;44.37;101922.34;5076656;28;20549;-78
2022/01/12 00:10:56;;;;;;;15.65;7.22;;;;;;;8.57;45.74;101914.78;5075461;28;20124;-77
2022/01/12 00:13:41;;;;;;;16.10;7.55;;;;;;;8.68;46.30;101903.91;5079012;28;20063;-77
2022/01/12 00:16:26;;;;;;;12.32;5.15;;;;;;;8.59;45.62;101918.00;5081653;28;20523;-77
2022/01/12 00:19:11;;;;;;;10.00;5.05;;;;;;;8.64;45.09;101929.94;5087175;28;20055;-77
2022/01/12 00:21:56;;;;;;;8.95;5.32;;;;;;;8.82;43.48;101932.09;5099979;28;20062;-77
2022/01/12 00:33:48;;;;;;;10.82;6.38;;;;;;;8.83;43.40;101917.44;5060367;28;20416;-77
2022/01/12 00:36:35;;;;;;;14.32;6.05;;;;;;;8.84;43.60;101919.88;5086960;28;20055;-77
2022/01/12 00:39:20;;;;;;;13.70;4.43;;;;;;;8.63;44.29;101945.41;5081586;28;20158;-77
2022/01/12 00:42:10;;;;;;;14.82;6.25;;;;;;;8.48;43.61;101932.66;5080107;28;20098;-77
2022/01/12 00:44:55;;;;;;;15.75;6.85;;;;;;;8.62;43.60;101930.22;5089826;28;20519;-77
2022/01/12 00:47:40;;;;;;;7.05;4.68;;;;;;;8.62;43.29;101938.34;5076502;28;20067;-77
2022/01/12 00:50:25;;;;;;;10.27;5.90;;;;;;;8.06;44.41;101961.84;5059881;28;20503;-78
2022/01/12 00:53:10;;;;;;;8.57;5.30;;;;;;;7.82;44.99;101960.72;5073208;28;20136;-79
2022/01/12 00:55:56;;;;;;;15.48;5.75;;;;;;;8.24;43.97;101950.50;5073073;28;20102;-77
2022/01/12 00:58:41;;;;;;;9.30;4.82;;;;;;;8.39;45.20;101945.13;5059282;28;20069;-77
2022/01/12 01:01:27;;;;;;;8.52;4.95;;;;;;;8.71;43.46;101952.97;5072979;28;20052;-77
2022/01/12 01:04:12;;;;;;;12.93;6.47;;;;;;;8.77;43.52;101959.22;5076675;28;20059;-77
2022/01/12 01:06:57;;;;;;;12.10;6.70;;;;;;;8.50;44.00;101968.44;5074759;28;20060;-77
2022/01/12 01:09:49;;;;;;;9.50;4.80;;;;;;;8.72;43.35;101964.66;5058269;28;20051;-77
2022/01/12 01:12:35;;;;;;;11.70;6.50;;;;;;;8.79;42.87;101965.16;5076513;28;20603;-77
2022/01/12 01:16:15;;;;;;;14.50;7.15;;;;;;;8.54;43.23;101972.22;5059443;28;20048;-77
2022/01/12 01:27:45;;;;;;;17.15;7.35;;;;;;;8.56;43.60;101951.09;5049132;28;20043;-78
2022/01/12 01:30:34;;;;;;;10.57;5.47;;;;;;;8.26;45.55;101953.75;5055981;28;20148;-78
2022/01/12 01:33:22;;;;;;;12.98;6.88;;;;;;;8.41;45.57;101953.81;5052723;28;20052;-78
2022/01/12 01:36:07;;;;;;;7.97;5.78;;;;;;;8.65;43.35;101961.38;5058963;28;20425;-77
2022/01/12 01:38:52;;;;;;;10.35;6.40;;;;;;;8.45;44.85;101967.63;5067657;28;20048;-77
2022/01/12 01:41:40;;;;;;;8.93;4.75;;;;;;;8.62;41.90;101970.88;5052489;28;20048;-77
2022/01/12 01:53:24;;;;;;;26.15;12.23;;;;;;;7.95;43.61;101971.84;5062885;28;20047;-78
2022/01/12 01:56:10;;;;;;;14.90;7.55;;;;;;;8.02;46.48;101955.34;5072285;28;20516;-77
2022/01/12 01:58:55;;;;;;;13.55;6.78;;;;;;;8.03;47.01;101967.78;5057037;28;20051;-77
2022/01/12 02:01:41;;;;;;;61.15;20.95;;;;;;;8.09;44.06;101967.53;5057208;28;20059;-78
2022/01/12 02:04:26;;;;;;;59.45;21.17;;;;;;;8.17;43.12;101963.50;5060882;28;20048;-77
2022/01/12 02:07:14;;;;;;;35.35;17.05;;;;;;;8.08;42.81;101971.31;5059484;28;20040;-77
2022/01/12 02:10:03;;;;;;;28.70;11.57;;;;;;;7.87;44.87;101966.13;5072663;28;20401;-77
2022/01/12 02:13:02;;;;;;;15.55;7.90;;;;;;;7.94;45.73;101963.97;5060438;28;20053;-77
2022/01/12 02:15:48;;;;;;;11.80;6.07;;;;;;;8.11;48.32;101970.00;5058500;28;20055;-78
2022/01/12 02:39:42;;;;;;;16.95;6.55;;;;;;;7.72;46.80;101981.22;5071269;28;20039;-78
2022/01/12 02:40:09;;;;;;;17.15;6.57;;;;;;;7.78;45.85;101989.38;5059381;28;20067;-78
2022/01/12 02:55:02;;;;;;;13.73;6.57;;;;;;;7.62;43.74;101988.50;5056074;28;20043;-77
2022/01/12 02:57:47;;;;;;;26.48;6.10;;;;;;;7.18;48.14;101982.59;5070902;28;20051;-77
2022/01/12 03:00:50;;;;;;;9.23;5.07;;;;;;;7.01;47.17;101976.53;5070785;28;20540;-77
2022/01/12 03:03:37;;;;;;;11.30;5.22;;;;;;;7.39;50.24;101976.22;5064986;28;20051;-77
2022/01/12 03:06:26;;;;;;;12.93;6.82;;;;;;;7.59;50.06;101975.50;5071157;28;20063;-77
2022/01/12 03:09:12;;;;;;;12.27;6.88;;;;;;;7.76;45.78;101978.00;5059914;28;20075;-77
2022/01/12 03:11:56;;;;;;;15.95;6.45;;;;;;;7.74;45.83;101980.97;5059675;28;20044;-77
2022/01/12 03:14:41;;;;;;;8.07;4.53;;;;;;;7.62;49.79;101983.88;5074585;28;20416;-77
2022/01/12 03:17:26;;;;;;;13.27;6.25;;;;;;;7.49;48.64;101983.56;5064338;28;20055;-78
2022/01/12 03:20:11;;;;;;;10.95;5.25;;;;;;;7.40;48.57;101993.28;5062095;28;20233;-77
2022/01/12 03:22:56;;;;;;;10.90;6.03;;;;;;;7.44;49.79;101995.19;5057483;28;20052;-77
2022/01/12 03:25:42;;;;;;;13.13;7.25;;;;;;;7.50;48.64;101996.84;5044362;28;20051;-77
2022/01/12 03:28:27;;;;;;;12.20;6.18;;;;;;;7.70;45.81;102004.25;5076553;28;20048;-78
2022/01/12 03:31:19;;;;;;;12.57;4.93;;;;;;;7.63;45.84;102003.66;5059988;28;20051;-77
2022/01/12 03:34:08;;;;;;;11.82;5.07;;;;;;;7.42;49.68;102008.16;5063910;28;20519;-77
2022/01/12 03:39:38;;;;;;;10.90;4.03;;;;;;;7.44;46.43;102014.13;5051823;28;20429;-77
2022/01/12 03:42:23;;;;;;;;;;;;;;;7.43;47.56;102019.78;5063952;28;20047;-78
2022/01/12 03:45:07;;;;;;;9.25;5.13;;;;;;;7.23;46.72;102029.41;5076863;28;19913;-77
2022/01/12 03:47:52;;;;;;;7.40;3.85;;;;;;;7.03;49.90;102017.66;5059630;28;20059;-77
2022/01/12 03:50:37;;;;;;;14.63;5.87;;;;;;;7.23;49.91;102018.59;5064104;28;20401;-77
2022/01/12 03:53:23;;;;;;;10.60;4.93;;;;;;;7.47;51.25;102018.19;5061271;28;20294;-78
2022/01/12 03:56:08;;;;;;;10.90;4.10;;;;;;;7.67;52.02;102019.09;5059723;28;20048;-77
2022/01/12 03:58:52;;;;;;;13.73;3.45;;;;;;;7.84;52.47;102037.06;5074436;28;20051;-78
2022/01/12 04:01:37;;;;;;;8.93;4.40;;;;;;;7.93;52.36;102035.47;5074161;28;20052;-77
2022/01/12 04:04:31;;;;;;;12.43;5.82;;;;;;;7.92;51.83;102033.84;5073367;28;20528;-78
2022/01/12 04:10:20;;;;;;;9.40;5.47;;;;;;;8.09;45.93;102027.13;5076525;28;20040;-78
2022/01/12 04:13:05;;;;;;;10.50;4.50;;;;;;;7.99;45.74;102037.94;5064147;28;20044;-77
2022/01/12 04:15:54;;;;;;;9.68;4.82;;;;;;;7.90;48.29;102038.72;5063157;28;20063;-77
2022/01/12 04:18:39;;;;;;;11.38;6.32;;;;;;;7.74;49.71;102044.06;5060416;28;20048;-77
2022/01/12 04:21:28;;;;;;;11.20;6.10;;;;;;;8.00;45.65;102047.69;5058700;28;20067;-78
2022/01/12 04:24:13;;;;;;;10.70;5.78;;;;;;;7.69;44.90;102049.44;5060777;28;20052;-77
2022/01/12 04:26:58;;;;;;;7.78;4.70;;;;;;;7.65;45.01;102052.94;5060141;28;20056;-78
2022/01/12 04:29:43;;;;;;;10.77;4.93;;;;;;;7.49;45.67;102059.34;5058529;28;20047;-77
2022/01/12 04:32:28;;;;;;;10.27;6.07;;;;;;;7.35;46.49;102048.16;5066475;28;20405;-78
2022/01/12 04:35:15;;;;;;;16.58;8.32;;;;;;;7.53;46.37;102058.56;5060044;28;20051;-77
2022/01/12 04:38:00;;;;;;;16.92;7.60;;;;;;;7.59;44.53;102064.81;5061133;28;20051;-77
2022/01/12 04:40:45;;;;;;;11.77;6.05;;;;;;;7.50;44.30;102066.41;5062251;28;20451;-77
2022/01/12 04:43:31;;;;;;;10.60;7.22;;;;;;;7.30;45.13;102064.38;5060076;28;20064;-77
2022/01/12 04:49:26;;;;;;;16.10;7.47;;;;;;;7.26;45.37;102068.69;5057901;28;20052;-77
2022/01/12 04:52:11;;;;;;;15.63;8.40;;;;;;;7.42;44.72;102075.81;5058531;28;20047;-77
2022/01/12 04:54:56;;;;;;;14.70;7.50;;;;;;;7.63;43.19;102088.41;5068080;28;20067;-78
2022/01/12 04:57:44;;;;;;;15.57;7.82;;;;;;;7.69;44.02;102091.94;5060688;28;20111;-77
2022/01/12 05:00:30;;;;;;;14.63;6.18;;;;;;;7.47;44.22;102083.97;5052243;28;20174;-77
2022/01/12 05:15:12;;;;;;;17.30;7.57;;;;;;;6.83;45.59;102094.81;5072531;28;20044;-77
2022/01/12 05:17:57;;;;;;;13.35;7.85;;;;;;;6.86;45.22;102099.69;5071754;28;20039;-77
2022/01/12 05:20:44;;;;;;;19.33;8.55;;;;;;;6.96;44.67;102104.38;5060526;28;20056;-77
2022/01/12 05:23:29;;;;;;;18.63;8.27;;;;;;;7.15;44.14;102112.94;5066582;28;20429;-77
2022/01/12 05:26:15;;;;;;;22.42;8.45;;;;;;;7.07;44.60;102121.53;5062096;28;20063;-76
2022/01/12 05:29:03;;;;;;;13.57;7.45;;;;;;;7.04;45.23;102127.47;5057047;28;20047;-76
2022/01/12 05:31:47;;;;;;;20.75;8.57;;;;;;;6.57;46.31;102125.34;5058323;28;20111;-76
2022/01/12 05:34:32;;;;;;;13.80;6.85;;;;;;;6.51;46.25;102128.25;5054357;28;20126;-76
2022/01/12 05:37:17;;;;;;;14.88;6.63;;;;;;;6.82;44.57;102125.63;5057322;28;20047;-77
2022/01/12 05:40:03;;;;;;;10.63;6.43;;;;;;;6.89;44.18;102125.44;5057333;28;20044;-76
2022/01/12 05:42:52;;;;;;;20.75;10.05;;;;;;;6.91;44.47;102119.78;5056976;28;20051;-76
2022/01/12 05:45:39;;;;;;;23.42;10.13;;;;;;;6.88;45.01;102115.69;5064586;28;20493;-76
2022/01/12 05:51:29;;;;;;;13.50;6.50;;;;;;;7.01;50.73;102139.59;5057511;28;20401;-76
2022/01/12 05:54:14;;;;;;;12.38;6.88;;;;;;;7.18;53.47;102136.78;5054198;28;20433;-77
2022/01/12 05:57:00;;;;;;;10.35;6.05;;;;;;;7.38;55.00;102138.81;5056288;28;20047;-76
2022/01/12 05:59:46;;;;;;;17.38;7.28;;;;;;;7.48;54.25;102128.91;5058784;28;20052;-76
2022/01/12 06:02:31;;;;;;;11.48;5.18;;;;;;;7.76;55.52;102121.50;5076750;28;20055;-78
2022/01/12 06:05:18;;;;;;;7.28;3.88;;;;;;;7.88;56.43;102132.94;5096195;28;20408;-79
2022/01/12 06:08:03;;;;;;;11.82;5.65;;;;;;;8.04;57.91;102145.50;5088183;28;20137;-78
2022/01/12 06:10:49;;;;;;;7.78;4.55;;;;;;;8.10;59.42;102153.38;5085190;28;20696;-78
2022/01/12 06:13:35;;;;;;;14.20;5.70;;;;;;;8.28;59.75;102159.44;5061891;28;20051;-78
2022/01/12 06:16:20;;;;;;;11.88;4.80;;;;;;;8.38;60.21;102154.09;5062907;28;20051;-79
2022/01/12 06:19:05;;;;;;;;;;;;;;;8.44;60.22;102156.53;5052548;28;20048;-78
2022/01/12 06:22:00;;;;;;;10.32;5.10;;;;;;;8.50;60.58;102171.75;5060353;28;19917;-78
2022/01/12 06:24:46;;;;;;;23.50;7.40;;;;;;;8.49;55.94;102177.44;5081464;28;20048;-78
2022/01/12 06:27:33;;;;;;;13.70;5.80;;;;;;;8.33;45.10;102179.25;5080517;28;20047;-77
2022/01/12 06:33:10;;;;;;;15.48;6.82;;;;;;;8.23;56.29;102200.06;5081395;28;20043;-77
2022/01/12 06:35:55;;;;;;;14.73;3.70;;;;;;;8.33;58.50;102195.53;5091137;28;20043;-77
2022/01/12 06:38:40;;;;;;;6.78;3.92;;;;;;;8.42;60.10;102199.38;5064258;28;20052;-78
2022/01/12 06:41:25;;;;;;;14.32;5.95;;;;;;;8.35;50.04;102200.69;5063267;28;20408;-77
2022/01/12 06:44:15;;;;;;;11.32;5.78;;;;;;;8.49;56.69;102201.81;5059206;28;20424;-78
2022/01/12 06:47:03;;;;;;;11.00;5.32;;;;;;;8.36;56.34;102216.69;5060341;28;20531;-77
2022/01/12 06:49:49;;;;;;;15.00;5.10;;;;;;;8.43;59.18;102211.81;5064568;28;20056;-77
2022/01/12 06:52:36;;;;;;;9.98;5.25;;;;;;;8.46;60.20;102221.34;5065096;28;20158;-78
2022/01/12 06:55:21;;;;;;;9.27;3.60;;;;;;;8.48;61.62;102230.81;5067246;28;20119;-78
2022/01/12 06:58:06;;;;;;;7.70;2.95;;;;;;;8.51;62.23;102233.03;5062716;28;20051;-77
2022/01/12 07:00:51;;;;;;;8.95;4.10;;;;;;;8.53;62.65;102233.56;5077694;28;20052;-78
2022/01/12 07:03:38;;;;;;;13.27;5.90;;;;;;;8.44;59.68;102235.16;5062854;28;20043;-78
2022/01/12 07:06:23;;;;;;;7.55;3.55;;;;;;;8.51;61.07;102241.16;5070476;28;20051;-78
2022/01/12 07:09:08;;;;;;;10.00;3.67;;;;;;;8.63;61.82;102245.56;5073517;28;20063;-78
2022/01/12 07:12:06;;;;;;;8.90;4.00;;;;;;;8.73;62.99;102242.88;5071789;28;20043;-78
2022/01/12 07:14:54;;;;;;;15.43;4.88;;;;;;;8.76;63.30;102256.72;5076873;28;20048;-77
2022/01/12 07:17:39;;;;;;;10.95;3.50;;;;;;;8.82;63.33;102249.44;5071531;28;20051;-78
2022/01/12 07:20:24;;;;;;;11.25;3.25;;;;;;;8.90;63.52;102246.19;5067968;28;20043;-78
2022/01/12 07:23:11;;;;;;;7.22;3.80;;;;;;;8.95;63.82;102248.91;5090467;28;20039;-79
2022/01/12 07:25:56;;;;;;;16.55;4.18;;;;;;;8.98;63.82;102248.41;5088071;28;20068;-78
2022/01/12 07:28:40;;;;;;;9.63;2.70;;;;;;;8.98;63.90;102248.41;5082187;28;20052;-78
2022/01/12 07:31:26;;;;;;;15.85;5.05;;;;;;;8.96;63.73;102261.41;5086814;28;20402;-78
2022/01/12 07:34:13;;;;;;;16.20;6.00;;;;;;;8.88;62.41;102265.47;5082362;28;20043;-78
2022/01/12 07:36:57;;;;;;;7.25;4.03;;;;;;;8.91;62.99;102269.53;5079058;28;20039;-78
2022/01/12 07:39:42;;;;;;;16.33;4.32;;;;;;;8.95;63.75;102273.34;5084289;28;20064;-77
2022/01/12 07:42:27;;;;;;;16.38;3.92;;;;;;;8.98;63.86;102270.09;5084837;28;20043;-77
2022/01/12 07:45:12;;;;;;;9.00;4.05;;;;;;;9.02;64.47;102263.06;5069168;28;20054;-77
2022/01/12 07:47:59;;;;;;;12.43;5.03;;;;;;;9.01;64.10;102278.53;5080159;28;20051;-78
2022/01/12 07:50:44;;;;;;;12.45;3.97;;;;;;;8.97;64.44;102282.03;5084434;28;20409;-77
2022/01/12 07:53:29;;;;;;;14.07;4.22;;;;;;;8.96;64.50;102283.13;5083411;28;20512;-78
2022/01/12 07:56:14;;;;;;;13.80;3.28;;;;;;;9.00;64.66;102292.34;5088044;28;20067;-78
2022/01/12 07:58:59;;;;;;;9.07;3.70;;;;;;;9.05;65.14;102295.06;5083192;28;20047;-78
2022/01/12 08:01:44;;;;;;;11.02;3.70;;;;;;;9.05;65.11;102295.06;5087167;28;20048;-78
2022/01/12 08:04:29;;;;;;;6.57;3.13;;;;;;;8.98;64.25;102299.97;5091864;28;20524;-77
2022/01/12 08:07:14;;;;;;;8.63;3.55;;;;;;;8.94;63.58;102309.69;5092441;28;20047;-78
2022/01/12 08:09:58;;;;;;;7.90;3.65;;;;;;;8.91;64.25;102311.03;5086977;28;20322;-78
2022/01/12 08:12:44;;;;;;;13.60;4.63;;;;;;;8.87;61.53;102325.41;5091876;28;20052;-78
2022/01/12 08:15:29;;;;;;;20.25;5.40;;;;;;;8.75;57.87;102319.34;5092095;28;20044;-78
2022/01/12 08:18:14;;;;;;;8.38;3.97;;;;;;;8.73;57.19;102313.41;5090311;28;20507;-77
2022/01/12 08:20:58;;;;;;;9.52;3.75;;;;;;;8.74;58.26;102320.44;5090275;28;20047;-77
2022/01/12 08:23:43;;;;;;;9.05;4.20;;;;;;;8.72;58.46;102319.91;5089174;28;20047;-78
2022/01/12 08:26:28;;;;;;;12.60;5.60;;;;;;;8.65;57.37;102317.41;5082153;28;20055;-78
2022/01/12 08:29:15;;;;;;;12.40;4.47;;;;;;;8.67;58.66;102328.00;5079105;28;20059;-77
2022/01/12 08:32:00;;;;;;;16.70;4.30;;;;;;;8.74;61.47;102329.38;5086611;28;20047;-78
2022/01/12 08:34:44;;;;;;;9.95;2.88;;;;;;;8.82;63.35;102333.50;5089627;28;20055;-79
2022/01/12 08:37:29;;;;;;;13.15;4.60;;;;;;;8.76;63.24;102326.41;5086122;28;20052;-78
2022/01/12 08:40:16;;;;;;;11.18;4.70;;;;;;;8.80;63.05;102335.66;5091183;28;20278;-78
2022/01/12 08:43:00;;;;;;;15.57;4.35;;;;;;;8.79;63.46;102336.72;5095403;28;20050;-78
2022/01/12 08:45:46;;;;;;;;;;;;;;;8.84;64.47;102344.91;5107305;28;20238;-79
2022/01/12 08:48:30;;;;;;;8.00;3.15;;;;;;;8.83;65.29;102346.00;5083673;28;19912;-78
2022/01/12 08:51:15;;;;;;;;;;;;;;;8.88;65.86;102348.75;5090222;28;20046;-78
2022/01/12 08:54:00;;;;;;;13.27;4.22;;;;;;;8.90;66.29;102360.13;5081721;28;19913;-78
2022/01/12 08:56:46;;;;;;;7.82;3.78;;;;;;;8.91;66.13;102356.34;5092392;28;20048;-78
2022/01/12 08:59:31;;;;;;;13.10;5.20;;;;;;;8.87;64.85;102349.81;5094508;28;20051;-78
2022/01/12 09:02:16;;;;;;;15.70;4.22;;;;;;;8.92;65.73;102352.56;5107575;28;20043;-79
2022/01/12 09:05:01;;;;;;;11.52;4.30;;;;;;;8.93;65.46;102357.72;5111979;28;20047;-79
2022/01/12 09:07:46;;;;;;;12.52;5.57;;;;;;;8.93;65.24;102368.56;5110056;28;20523;-78
2022/01/12 09:10:32;;;;;;;11.90;5.03;;;;;;;8.97;64.91;102372.38;5086739;28;20052;-77
2022/01/12 09:13:17;;;;;;;12.93;5.40;;;;;;;8.84;62.12;102372.03;5092020;28;20052;-77
2022/01/12 09:16:06;;;;;;;10.90;4.50;;;;;;;8.93;63.63;102370.47;5087711;28;20051;-78
2022/01/12 09:18:51;;;;;;;9.48;4.43;;;;;;;9.00;64.17;102379.16;5083451;28;20588;-78
2022/01/12 09:21:36;;;;;;;8.27;3.20;;;;;;;9.05;65.25;102364.81;5087898;28;20044;-78
2022/01/12 09:24:21;;;;;;;5.63;2.78;;;;;;;9.10;65.35;102375.69;5087307;28;20051;-78
2022/01/12 09:27:05;;;;;;;8.60;3.60;;;;;;;9.10;65.20;102373.78;5084795;28;20441;-78
2022/01/12 09:29:50;;;;;;;6.20;3.00;;;;;;;9.11;65.54;102375.44;5088934;28;20051;-78
2022/01/12 09:32:35;;;;;;;7.00;3.75;;;;;;;9.09;64.68;102383.03;5089377;28;20044;-79
2022/01/12 09:35:21;;;;;;;10.20;3.83;;;;;;;9.16;65.63;102383.59;5084439;28;20048;-78
2022/01/12 09:38:05;;;;;;;11.23;3.03;;;;;;;9.13;65.38;102381.41;5073821;28;20118;-78
2022/01/12 09:40:52;;;;;;;9.63;3.20;;;;;;;9.15;65.10;102387.38;5108205;28;20043;-85
2022/01/12 09:43:38;;;;;;;12.85;6.10;;;;;;;9.14;63.96;102383.06;5097444;28;20416;-78
2022/01/12 09:46:26;;;;;;;13.25;5.70;;;;;;;9.15;63.72;102383.84;5110641;28;20051;-78
2022/01/12 09:49:11;;;;;;;12.50;4.13;;;;;;;9.22;64.45;102390.69;5109009;28;20051;-78
2022/01/12 09:51:57;;;;;;;12.68;4.32;;;;;;;9.15;62.54;102392.81;5107597;28;20042;-78
2022/01/12 09:54:43;;;;;;;12.05;5.03;;;;;;;9.11;62.57;102397.13;5109718;28;20058;-78
2022/01/12 09:57:28;;;;;;;12.18;3.67;;;;;;;9.13;62.29;102389.56;5108038;28;20051;-78
2022/01/12 10:00:15;;;;;;;;;;;;;;;9.27;64.03;102390.69;5107613;28;20051;-78
2022/01/12 10:03:12;;;;;;;8.02;3.65;;;;;;;9.26;63.97;102386.34;5094219;28;20647;-78
2022/01/12 10:05:56;;;;;;;14.77;5.53;;;;;;;9.14;62.16;102391.19;5084121;28;20471;-78
2022/01/12 10:08:42;;;;;;;5.10;2.88;;;;;;;9.26;63.48;102397.22;5086554;28;20047;-78
2022/01/12 10:11:27;;;;;;;7.63;3.92;;;;;;;9.31;64.00;102397.22;5089927;28;20039;-79
2022/01/12 10:14:12;;;;;;;10.30;5.18;;;;;;;9.26;63.34;102399.94;5072290;28;20055;-78
2022/01/12 10:16:58;;;;;;;6.75;3.35;;;;;;;9.27;63.16;102396.13;5086244;28;20048;-78
2022/01/12 10:19:43;;;;;;;11.77;4.28;;;;;;;9.30;63.22;102395.59;5089494;28;20059;-79
2022/01/12 10:22:29;;;;;;;8.98;4.65;;;;;;;9.35;63.42;102392.91;5074511;28;20047;-79
2022/01/12 10:25:23;;;;;;;12.45;4.38;;;;;;;9.49;64.66;102387.00;5090307;28;20047;-78
2022/01/12 10:28:18;;;;;;;9.23;3.63;;;;;;;9.47;63.80;102387.25;5070399;28;20071;-79
2022/01/12 10:31:03;;;;;;;6.90;3.60;;;;;;;9.51;63.32;102391.06;5094464;28;20171;-78
2022/01/12 10:33:48;;;;;;;5.30;3.38;;;;;;;9.52;63.27;102389.16;5094877;28;20059;-79
2022/01/12 10:36:40;;;;;;;7.20;2.58;;;;;;;9.61;63.87;102382.13;5074513;28;20056;-78
2022/01/12 10:39:27;;;;;;;8.70;4.72;;;;;;;9.60;63.70;102370.44;5083020;28;20039;-78
2022/01/12 10:42:14;;;;;;;9.65;4.88;;;;;;;9.61;63.08;102371.25;5098847;28;20059;-79
2022/01/12 10:45:04;;;;;;;9.80;4.03;;;;;;;9.56;62.58;102363.09;5109790;28;20051;-79
2022/01/12 10:47:59;;;;;;;8.15;4.28;;;;;;;9.58;61.78;102364.47;5100139;28;20050;-79
2022/01/12 10:50:59;;;;;;;12.85;4.75;;;;;;;9.41;58.13;102364.69;5102753;28;20059;-78
2022/01/12 10:53:44;;;;;;;8.93;4.55;;;;;;;9.34;58.03;102358.72;5077344;28;20054;-77
2022/01/12 10:56:29;;;;;;;7.97;3.42;;;;;;;9.37;58.51;102363.59;5096891;28;20058;-77
2022/01/12 10:59:19;;;;;;;6.78;3.50;;;;;;;9.42;60.24;102366.31;5100491;28;20359;-78
2022/01/12 11:02:04;;;;;;;9.80;4.68;;;;;;;9.42;60.26;102366.31;5103239;28;20055;-79
2022/01/12 11:04:49;;;;;;;9.40;3.35;;;;;;;9.42;60.15;102360.06;5100940;28;20051;-78
2022/01/12 11:07:35;;;;;;;6.45;3.83;;;;;;;9.55;61.04;102369.63;5092057;28;20034;-78
2022/01/12 11:10:21;;;;;;;11.10;4.90;;;;;;;9.45;58.67;102362.25;5103138;27;20047;-78
2022/01/12 11:13:06;;;;;;;13.23;4.72;;;;;;;9.57;60.89;102362.84;5101976;28;20046;-78
2022/01/12 11:15:52;;;;;;;6.50;3.92;;;;;;;9.53;59.67;102353.59;5101485;28;20043;-78
2022/01/12 11:18:39;;;;;;;11.55;4.63;;;;;;;9.48;57.82;102356.31;5096511;28;20055;-78
2022/01/12 11:21:37;;;;;;;18.95;6.00;;;;;;;9.43;55.28;102359.00;5084905;28;20597;-78
2022/01/12 11:24:25;;;;;;;13.60;5.22;;;;;;;9.48;57.24;102363.63;5103625;28;20038;-78
2022/01/12 11:27:20;;;;;;;14.82;6.05;;;;;;;9.33;55.02;102362.50;5105792;28;20043;-78
2022/01/12 11:30:17;;;;;;;10.23;4.25;;;;;;;9.49;54.47;102365.25;5110109;28;20038;-78
2022/01/12 11:33:06;;;;;;;16.73;5.13;;;;;;;9.55;55.61;102358.78;5090373;28;20056;-78
2022/01/12 11:35:52;;;;;;;16.85;5.40;;;;;;;9.52;56.10;102362.81;5077016;28;20051;-79
2022/01/12 11:38:38;;;;;;;11.00;4.35;;;;;;;9.43;55.09;102356.28;5081401;28;20055;-80
2022/01/12 11:41:28;;;;;;;11.80;5.20;;;;;;;9.43;53.49;102351.69;5089223;28;20067;-80
2022/01/12 11:44:22;;;;;;;11.23;4.57;;;;;;;9.44;52.75;102350.59;5099652;28;20062;-80
2022/01/12 11:47:13;;;;;;;9.95;5.03;;;;;;;9.53;53.65;102350.88;5104566;28;20063;-79
2022/01/12 11:49:58;;;;;;;9.95;4.53;;;;;;;9.63;55.09;102350.09;5102451;28;20051;-79
2022/01/12 11:52:43;;;;;;;5.90;3.45;;;;;;;9.56;53.74;102344.09;5101637;28;20035;-79
2022/01/12 11:55:40;;;;;;;9.63;3.78;;;;;;;9.72;56.59;102343.03;5104583;28;20051;-79
2022/01/12 11:58:26;;;;;;;7.70;3.70;;;;;;;9.77;56.49;102340.31;5101354;28;20043;-79
2022/01/12 12:01:15;;;;;;;19.25;3.95;;;;;;;9.92;57.62;102334.09;5099919;28;20046;-80
2022/01/12 12:04:01;;;;;;;10.50;4.82;;;;;;;9.86;56.27;102334.09;5096790;28;20523;-80
2022/01/12 12:06:46;;;;;;;9.63;4.60;;;;;;;9.82;53.27;102326.75;5089972;28;20048;-80
2022/01/12 12:09:43;;;;;;;7.90;3.35;;;;;;;9.85;54.36;102326.22;5085578;28;20051;-80
2022/01/12 12:12:31;;;;;;;10.82;4.82;;;;;;;9.78;51.92;102326.47;5090935;28;20048;-80
2022/01/12 12:15:16;;;;;;;9.90;4.00;;;;;;;9.87;53.14;102327.56;5099792;28;20043;-80
2022/01/12 12:18:04;;;;;;;5.53;3.03;;;;;;;9.89;51.52;102332.75;5099841;28;20055;-80
2022/01/12 12:20:49;;;;;;;12.57;4.05;;;;;;;9.90;51.76;102326.22;5095681;28;20047;-80
2022/01/12 12:23:33;;;;;;;5.43;3.30;;;;;;;9.96;52.67;102327.84;5061000;28;20245;-80
2022/01/12 12:26:20;;;;;;;7.63;3.15;;;;;;;10.05;51.91;102318.06;5057421;28;20063;-80
2022/01/12 12:29:05;;;;;;;6.13;2.75;;;;;;;10.09;52.09;102319.16;5075008;28;20044;-80
2022/01/12 12:31:51;;;;;;;5.55;3.33;;;;;;;10.25;54.28;102320.81;5076778;28;20047;-81
2022/01/12 12:34:36;;;;;;;5.65;2.17;;;;;;;10.38;53.81;102324.03;5071971;28;20746;-80
2022/01/12 12:37:20;;;;;;;3.83;1.95;;;;;;;10.39;50.41;102329.22;5078565;28;20048;-81
2022/01/12 12:40:28;;;;;;;5.15;2.40;;;;;;;11.04;41.24;102319.22;5080415;28;20052;-76
2022/01/12 12:43:26;;;;;;;8.15;1.80;;;;;;;10.75;40.27;102316.34;5070386;28;20039;-75
2022/01/12 12:46:13;;;;;;;4.03;1.90;;;;;;;11.18;39.92;102303.91;5074201;28;20047;-76
2022/01/12 12:48:58;;;;;;;6.28;2.05;;;;;;;11.58;38.39;102300.94;5074632;28;20067;-76
2022/01/12 12:51:43;;;;;;;6.13;1.58;;;;;;;11.79;35.21;102298.91;5077660;28;20118;-77
2022/01/12 12:54:28;;;;;;;4.18;2.03;;;;;;;11.73;37.28;102302.81;5075572;28;20444;-77
2022/01/12 12:57:13;;;;;;;3.42;1.65;;;;;;;11.51;34.66;102288.75;5073419;28;20051;-77
2022/01/12 13:00:07;;;;;;;3.42;2.30;;;;;;;11.87;33.07;102284.69;5076508;28;20064;-77
2022/01/12 13:02:53;;;;;;;3.92;1.80;;;;;;;11.23;35.04;102289.44;5074645;28;20055;-76
2022/01/12 13:05:41;;;;;;;2.45;1.60;;;;;;;11.79;37.26;102289.94;5072694;28;20060;-77
2022/01/12 13:08:26;;;;;;;11.63;1.70;;;;;;;11.68;37.43;102288.38;5077495;28;20516;-76
2022/01/12 13:11:11;;;;;;;2.20;1.45;;;;;;;11.45;33.58;102284.44;5077407;28;20489;-76
2022/01/12 13:13:57;;;;;;;2.35;1.60;;;;;;;11.46;34.47;102296.97;5071835;28;20048;-76
2022/01/12 13:16:49;;;;;;;4.22;2.15;;;;;;;12.05;36.40;102294.06;5073359;28;20047;-76
2022/01/12 13:22:39;;;;;;;7.55;2.90;;;;;;;12.65;33.85;102270.81;5057673;28;20056;-77
2022/01/12 13:25:24;;;;;;;7.30;4.47;;;;;;;12.65;34.93;102273.53;5063428;28;20056;-77
2022/01/12 13:28:09;;;;;;;5.18;2.75;;;;;;;13.18;35.55;102279.72;5067454;28;20044;-76
2022/01/12 13:30:57;;;;;;;9.70;4.00;;;;;;;13.52;33.55;102284.97;5066870;28;20421;-76
2022/01/12 13:33:47;;;;;;;11.73;4.32;;;;;;;13.38;34.32;102277.81;5074369;28;20040;-77
2022/01/12 13:36:34;;;;;;;10.32;4.75;;;;;;;13.55;34.63;102283.56;5079543;28;20040;-77
2022/01/12 13:39:19;;;;;;;14.20;6.40;;;;;;;13.76;34.51;102275.88;5073544;28;20501;-77
2022/01/12 13:42:04;;;;;;;;;;;;;;;14.06;34.45;102289.03;5076771;28;20048;-76
2022/01/12 13:45:03;;;;;;;14.90;5.10;;;;;;;13.87;34.73;102282.75;5074926;28;20369;-76
2022/01/12 13:47:57;;;;;;;12.88;5.63;;;;;;;13.96;33.65;102283.72;5068436;28;20405;-76
2022/01/12 13:50:55;;;;;;;11.80;5.88;;;;;;;13.53;32.99;102283.03;5078153;28;20040;-76
2022/01/12 13:53:41;;;;;;;10.15;5.30;;;;;;;12.97;32.17;102278.34;5072633;28;20442;-76
2022/01/12 13:56:37;;;;;;;14.43;6.07;;;;;;;12.47;32.60;102278.94;5068607;28;20072;-76
2022/01/12 13:59:25;;;;;;;14.15;6.80;;;;;;;12.23;33.00;102277.00;5072612;28;20040;-81
2022/01/12 14:02:16;;;;;;;17.88;6.57;;;;;;;12.24;33.40;102278.63;5075546;28;20111;-81
2022/01/12 14:05:08;;;;;;;17.80;8.32;;;;;;;12.24;33.44;102275.88;5082905;28;20040;-81
2022/01/12 14:08:04;;;;;;;19.40;6.53;;;;;;;12.18;33.65;102265.34;5082677;28;20053;-81
2022/01/12 14:10:54;;;;;;;14.77;6.43;;;;;;;12.18;33.90;102273.50;5086474;28;20049;-81
2022/01/12 14:13:40;;;;;;;18.98;6.63;;;;;;;12.02;33.98;102267.38;5083768;28;20040;-81
2022/01/12 14:16:30;;;;;;;19.67;7.05;;;;;;;12.09;34.35;102275.25;5083466;28;20047;-81
2022/01/12 14:19:16;;;;;;;29.42;8.70;;;;;;;12.00;33.84;102275.03;5093532;28;20051;-84
2022/01/12 14:22:01;;;;;;;21.30;8.15;;;;;;;11.86;33.50;102271.34;5092230;28;20055;-84
2022/01/12 14:25:12;;;;;;;;;;;;;;;11.97;33.85;102273.72;5087005;28;20060;-83
2022/01/12 14:27:57;;;;;;;16.38;7.13;;;;;;;11.84;33.92;102268.91;5086928;28;19916;-81
2022/01/12 14:30:43;;;;;;;10.90;5.55;;;;;;;11.87;33.63;102271.06;5089960;28;20036;-82